Time;durP1;ratioP1;P1;durP2;ratioP2;P2;SDS_P1;SDS_P2;PMS_P1;PMS_P2;Temp;Humidity;BMP_temperature;BMP_pressure;BME280_temperature;BME280_humidity;BME280_pressure;Samples;Min_cycle;Max_cycle;Signal;HPM_P1;HPM_P2
2022/05/28 00:01:07;;;;;;;5.30;0.80;;;;;;;10.23;67.78;100046.46;52505;1273;1016191;-62
2022/05/28 00:03:37;;;;;;;4.90;0.80;;;;;;;10.21;67.93;100043.84;52669;1273;1016622;-62
2022/05/28 00:06:09;;;;;;;15.40;1.30;;;;;;;10.19;67.81;100041.33;52570;1273;1016243;-62
2022/05/28 00:08:39;;;;;;;8.10;0.90;;;;;;;10.17;68.04;100043.52;52664;1273;1016579;-63
2022/05/28 00:11:15;;;;;;;10.60;1.20;;;;;;;10.14;67.99;100040.17;52564;1273;1017104;-62
2022/05/28 00:13:44;;;;;;;12.80;1.20;;;;;;;10.12;67.90;100044.38;52652;1273;1016616;-61
2022/05/28 00:16:15;;;;;;;8.70;0.90;;;;;;;10.10;68.13;100045.09;52503;1273;1016453;-62
2022/05/28 00:18:46;;;;;;;7.50;0.90;;;;;;;10.09;68.26;100040.13;52497;1273;1016458;-62
2022/05/28 00:21:16;;;;;;;7.60;0.80;;;;;;;10.06;68.32;100042.17;52619;1273;1016042;-63
2022/05/28 00:23:45;;;;;;;6.00;0.90;;;;;;;10.03;68.50;100040.90;52670;1273;1016290;-61
2022/05/28 00:26:15;;;;;;;4.60;1.00;;;;;;;10.00;68.69;100047.52;52610;1273;1016316;-63
2022/05/28 00:28:44;;;;;;;3.90;0.70;;;;;;;9.98;68.89;100045.89;52551;1272;1016108;-62
2022/05/28 00:31:14;;;;;;;9.20;1.00;;;;;;;9.96;69.05;100042.20;52739;1273;1016045;-62
2022/05/28 00:33:42;;;;;;;;;;;;;;;9.94;69.14;100038.45;52648;1273;1016767;-62
2022/05/28 00:36:13;;;;;;;9.00;1.40;;;;;;;9.92;69.32;100037.30;52604;1273;1015942;-62
2022/05/28 00:38:42;;;;;;;;;;;;;;;9.90;69.22;100035.95;52589;1273;1016500;-62
2022/05/28 00:41:12;;;;;;;11.00;1.00;;;;;;;9.87;69.27;100036.36;52621;1273;1016594;-63
2022/05/28 00:43:43;;;;;;;8.40;1.00;;;;;;;9.85;69.30;100032.91;52717;1273;1016735;-63
2022/05/28 00:46:16;;;;;;;6.50;0.90;;;;;;;9.83;69.22;100035.00;52562;1273;1016470;-62
2022/05/28 00:48:50;;;;;;;7.90;1.60;;;;;;;9.77;69.34;100031.31;52576;1273;1015968;-63
2022/05/28 00:51:22;;;;;;;5.80;1.20;;;;;;;9.75;69.29;100027.36;52648;1273;1016425;-63
2022/05/28 00:53:54;;;;;;;9.30;1.20;;;;;;;9.73;69.31;100025.30;52639;1273;1016725;-63
2022/05/28 00:56:24;;;;;;;11.50;1.30;;;;;;;9.71;69.29;100024.80;52632;1273;1016686;-62
2022/05/28 00:58:55;;;;;;;8.20;1.50;;;;;;;9.70;69.29;100023.31;52555;1273;1016134;-63
2022/05/28 01:01:27;;;;;;;11.40;1.80;;;;;;;9.68;69.33;100023.02;52667;1273;1016623;-63
2022/05/28 01:04:11;;;;;;;10.10;0.90;;;;;;;9.67;69.27;100022.76;52671;1273;1016453;-62
2022/05/28 01:06:49;;;;;;;14.90;1.10;;;;;;;9.66;69.39;100024.46;52724;1273;1016135;-61
2022/05/28 01:09:25;;;;;;;6.90;1.20;;;;;;;9.64;69.26;100027.36;52685;1273;1016478;-62
2022/05/28 01:12:05;;;;;;;9.50;0.80;;;;;;;9.62;69.30;100025.96;52565;1273;1016367;-62
2022/05/28 01:14:42;;;;;;;8.80;1.00;;;;;;;9.57;69.34;100030.53;52637;1273;1016255;-61
2022/05/28 01:17:16;;;;;;;10.30;1.10;;;;;;;9.54;69.35;100023.30;52564;1273;1016577;-62
2022/05/28 01:19:55;;;;;;;10.40;1.50;;;;;;;9.53;69.47;100022.83;52594;1273;1016471;-62
2022/05/28 01:22:41;;;;;;;7.50;0.80;;;;;;;9.52;69.42;100026.38;52787;1273;1016248;-62
2022/05/28 01:25:24;;;;;;;4.70;0.70;;;;;;;9.52;69.64;100019.56;52649;1273;1016698;-61
2022/05/28 01:27:59;;;;;;;7.90;1.40;;;;;;;9.52;69.64;100018.42;52670;1273;1016243;-63
2022/05/28 01:30:30;;;;;;;11.80;0.80;;;;;;;9.53;69.78;100016.96;52649;1273;1016220;-63
2022/05/28 01:33:02;;;;;;;8.40;0.90;;;;;;;9.55;69.83;100015.67;52560;1273;1016577;-63
2022/05/28 01:35:32;;;;;;;9.20;0.80;;;;;;;9.55;69.87;100018.93;52651;1273;1015766;-63
2022/05/28 01:38:03;;;;;;;8.20;0.70;;;;;;;9.57;70.00;100014.52;52609;1273;1016866;-63
2022/05/28 01:40:35;;;;;;;4.20;0.50;;;;;;;9.58;69.98;100018.38;52612;1273;1017946;-62
2022/05/28 01:43:07;;;;;;;8.20;0.80;;;;;;;9.57;69.84;100013.30;52688;1273;1017054;-62
2022/05/28 01:45:38;;;;;;;10.40;1.10;;;;;;;9.60;69.67;100010.81;52662;1273;1016413;-61
2022/05/28 01:48:09;;;;;;;8.70;0.80;;;;;;;9.61;69.76;100006.54;52558;1273;1019388;-62
2022/05/28 01:50:46;;;;;;;6.30;0.70;;;;;;;9.61;69.85;100003.02;52800;1273;1016172;-62
2022/05/28 01:56:10;;;;;;;8.40;1.10;;;;;;;9.59;69.71;99998.17;52748;1273;1016433;-62
2022/05/28 01:58:40;;;;;;;8.50;0.90;;;;;;;9.58;69.77;99995.93;52640;1273;1016595;-62
2022/05/28 02:01:11;;;;;;;12.80;0.90;;;;;;;9.57;69.81;99992.16;52661;1273;1015972;-63
2022/05/28 02:03:42;;;;;;;8.50;0.90;;;;;;;9.57;69.92;99992.88;52506;1273;1016611;-62
2022/05/28 02:06:12;;;;;;;6.90;1.50;;;;;;;9.58;69.89;99991.46;52588;1273;1016060;-61
2022/05/28 02:08:44;;;;;;;10.30;1.20;;;;;;;9.59;70.01;99991.14;52689;1271;1016374;-62
2022/05/28 02:11:16;;;;;;;9.60;0.60;;;;;;;9.61;69.90;99989.80;52659;1273;1016510;-61
2022/05/28 02:14:08;;;;;;;8.90;0.80;;;;;;;9.63;70.14;99989.38;52643;1273;1016438;-60
2022/05/28 02:16:48;;;;;;;8.30;0.90;;;;;;;9.63;70.22;99987.36;52759;1273;1016637;-62
2022/05/28 02:19:26;;;;;;;11.00;0.90;;;;;;;9.63;70.26;99979.15;52581;1273;1016603;-62
2022/05/28 02:22:04;;;;;;;6.50;0.90;;;;;;;9.63;70.38;99975.40;52580;1273;1016490;-63
2022/05/28 02:24:37;;;;;;;8.10;1.00;;;;;;;9.61;70.31;99976.12;52644;1273;1016022;-63
2022/05/28 02:27:15;;;;;;;10.60;0.80;;;;;;;9.59;70.37;99971.98;52537;1273;1016354;-62
2022/05/28 02:29:45;;;;;;;13.00;1.10;;;;;;;9.55;70.46;99975.95;52584;1273;1016949;-61
2022/05/28 02:32:16;;;;;;;10.40;1.00;;;;;;;9.51;70.44;99977.10;52538;1273;1019435;-61
2022/05/28 02:34:46;;;;;;;9.20;1.20;;;;;;;9.47;70.46;99982.18;52619;1273;1015977;-62
2022/05/28 02:37:16;;;;;;;6.00;0.80;;;;;;;9.39;70.54;99973.58;52500;1273;1016568;-61
2022/05/28 02:39:45;;;;;;;10.90;1.10;;;;;;;9.33;70.53;99974.97;52666;1273;1016469;-61
2022/05/28 02:42:14;;;;;;;13.90;1.20;;;;;;;9.27;70.61;99972.94;52551;1273;1016617;-62
2022/05/28 02:44:44;;;;;;;7.20;0.90;;;;;;;9.20;70.71;99974.67;52615;1273;1016126;-61
2022/05/28 02:47:13;;;;;;;6.80;1.10;;;;;;;9.11;70.78;99973.31;52598;1273;1016071;-61
2022/05/28 02:49:42;;;;;;;7.60;0.80;;;;;;;9.04;70.69;99969.44;52655;1273;1016502;-60
2022/05/28 02:52:12;;;;;;;9.20;1.30;;;;;;;8.99;70.73;99965.53;52614;1275;1016685;-61
2022/05/28 02:54:41;;;;;;;8.20;0.70;;;;;;;8.96;70.66;99972.96;52577;1273;1016201;-62
2022/05/28 02:57:11;;;;;;;6.20;0.60;;;;;;;8.95;70.80;99970.06;52554;1273;1017887;-61
2022/05/28 02:59:40;;;;;;;11.70;0.70;;;;;;;8.97;70.50;99969.17;52654;1273;1016625;-61
2022/05/28 03:02:09;;;;;;;7.70;1.30;;;;;;;9.01;70.41;99966.19;52628;1273;1016587;-62
2022/05/28 03:04:38;;;;;;;8.80;0.80;;;;;;;9.04;70.26;99967.40;52694;1273;1016312;-61
2022/05/28 03:07:08;;;;;;;9.10;0.70;;;;;;;9.06;70.22;99971.09;52583;1273;1016433;-62
2022/05/28 03:09:38;;;;;;;9.50;1.30;;;;;;;9.10;70.10;99971.31;52619;1273;1016623;-60
2022/05/28 03:12:09;;;;;;;11.30;0.60;;;;;;;9.14;70.16;99969.52;52538;1273;1016150;-62
2022/05/28 03:14:37;;;;;;;9.90;0.80;;;;;;;9.18;69.95;99972.45;52599;1273;1016703;-61
2022/05/28 03:17:07;;;;;;;7.60;0.60;;;;;;;9.25;69.80;99975.88;52543;1273;1016079;-61
2022/05/28 03:19:36;;;;;;;7.00;0.60;;;;;;;9.31;69.74;99975.94;52636;1273;1016552;-60
2022/05/28 03:22:06;;;;;;;6.80;1.30;;;;;;;9.37;69.62;99976.96;52538;1273;1016423;-62
2022/05/28 03:24:35;;;;;;;8.30;0.80;;;;;;;9.42;69.57;99974.64;52584;1273;1016438;-61
2022/05/28 03:27:05;;;;;;;5.70;0.50;;;;;;;9.46;69.37;99977.92;52663;1273;1016615;-61
2022/05/28 03:29:34;;;;;;;7.10;0.70;;;;;;;9.51;69.23;99982.61;52643;1273;1016791;-61
2022/05/28 03:32:05;;;;;;;6.70;0.90;;;;;;;9.55;69.24;99986.54;52568;1273;1016303;-62
2022/05/28 03:34:35;;;;;;;7.20;0.90;;;;;;;9.59;69.12;99987.95;52549;1273;1016428;-60
2022/05/28 03:37:05;;;;;;;8.30;0.60;;;;;;;9.61;68.95;99986.55;52549;1273;1016678;-61
2022/05/28 03:39:35;;;;;;;7.60;0.70;;;;;;;9.62;68.91;99986.38;52541;1273;1016466;-60
2022/05/28 03:42:05;;;;;;;5.80;0.70;;;;;;;9.63;68.74;99977.64;52598;1273;1016639;-60
2022/05/28 03:44:33;;;;;;;;;;;;;;;9.64;68.94;99974.71;52680;1273;1016453;-61
2022/05/28 03:47:03;;;;;;;4.40;0.50;;;;;;;9.64;68.91;99974.60;52688;1273;1016592;-61
2022/05/28 03:49:36;;;;;;;7.80;0.70;;;;;;;9.64;68.80;99970.05;52674;1273;1016293;-60
2022/05/28 03:52:08;;;;;;;4.30;0.50;;;;;;;9.65;69.00;99971.58;52726;1273;1017745;-62
2022/05/28 03:54:43;;;;;;;8.20;0.70;;;;;;;9.66;68.90;99974.23;52650;1273;1016289;-59
2022/05/28 03:57:17;;;;;;;3.50;0.50;;;;;;;9.67;68.85;99976.48;52503;1273;1016656;-60
2022/05/28 03:59:46;;;;;;;5.80;0.70;;;;;;;9.68;68.85;99974.98;52234;1273;1016174;-60
2022/05/28 04:02:16;;;;;;;6.00;0.70;;;;;;;9.70;68.78;99982.77;52663;1273;1016361;-60
2022/05/28 04:04:45;;;;;;;5.00;0.60;;;;;;;9.72;69.00;99978.05;52635;1273;1017099;-60
2022/05/28 04:07:15;;;;;;;3.80;0.50;;;;;;;9.75;68.57;99986.41;52612;1273;1016456;-59
2022/05/28 04:09:44;;;;;;;10.70;0.80;;;;;;;9.78;68.55;99980.54;52735;1273;1017270;-60
2022/05/28 04:12:14;;;;;;;4.90;0.50;;;;;;;9.82;68.60;99983.75;52579;1273;1016558;-60
2022/05/28 04:14:44;;;;;;;6.60;0.50;;;;;;;9.88;68.56;99982.21;52809;1273;1015776;-60
2022/05/28 04:17:13;;;;;;;7.00;0.50;;;;;;;9.94;68.42;99979.43;52886;1273;1015936;-61
2022/05/28 04:19:42;;;;;;;6.40;0.40;;;;;;;10.00;68.28;99984.42;52736;1273;1016464;-60
2022/05/28 04:22:11;;;;;;;7.40;0.50;;;;;;;10.07;68.09;99984.43;52655;1273;1016351;-60
2022/05/28 04:24:40;;;;;;;5.70;0.40;;;;;;;10.13;68.21;99984.30;52637;1273;1016463;-61
2022/05/28 04:27:09;;;;;;;9.20;0.60;;;;;;;10.17;68.11;99986.45;52619;1273;1016676;-60
2022/05/28 04:29:39;;;;;;;11.00;1.30;;;;;;;10.20;68.02;99987.88;52618;1273;1016413;-61
2022/05/28 04:32:09;;;;;;;5.30;0.60;;;;;;;10.24;68.12;99993.66;52682;1273;1015915;-60
2022/05/28 04:34:38;;;;;;;6.00;0.60;;;;;;;10.26;67.93;99990.20;52638;1273;1015954;-60
2022/05/28 04:37:08;;;;;;;11.80;0.90;;;;;;;10.28;67.85;99988.21;52647;1273;1016088;-60
2022/05/28 04:39:37;;;;;;;6.90;0.70;;;;;;;10.31;67.87;99991.60;52885;1273;1015823;-60
2022/05/28 04:42:07;;;;;;;6.90;0.60;;;;;;;10.38;67.82;99990.00;52688;1273;1016652;-62
2022/05/28 04:44:36;;;;;;;5.80;0.40;;;;;;;10.47;67.57;99986.68;52695;1273;1016668;-61
2022/05/28 04:47:07;;;;;;;5.60;0.90;;;;;;;10.54;67.52;99986.53;52609;1273;1018654;-62
2022/05/28 04:49:36;;;;;;;6.80;0.50;;;;;;;10.56;67.08;99991.02;52771;1273;1016638;-60
2022/05/28 04:52:07;;;;;;;9.30;1.00;;;;;;;10.54;67.01;99989.02;52525;1273;1016704;-60
2022/05/28 04:54:36;;;;;;;3.80;0.60;;;;;;;10.51;66.60;99984.36;52640;1273;1016488;-61
2022/05/28 04:57:06;;;;;;;2.50;0.40;;;;;;;10.49;66.59;99985.20;52599;1273;1015929;-62
2022/05/28 04:59:35;;;;;;;6.70;0.50;;;;;;;10.47;66.54;99984.27;52525;1271;1016556;-62
2022/05/28 05:02:06;;;;;;;5.10;0.50;;;;;;;10.43;66.23;99978.36;52660;1273;1017188;-62
2022/05/28 05:04:36;;;;;;;11.90;0.70;;;;;;;10.40;66.48;99977.60;52543;1273;1016210;-61
2022/05/28 05:07:05;;;;;;;5.70;0.80;;;;;;;10.38;66.54;99976.74;52626;1273;1016117;-62
2022/05/28 05:09:35;;;;;;;5.00;0.60;;;;;;;10.36;66.69;99980.02;52698;1273;1017228;-60
2022/05/28 05:12:05;;;;;;;7.30;0.70;;;;;;;10.37;66.79;99974.35;52519;1273;1016635;-62
2022/05/28 05:14:34;;;;;;;6.40;0.50;;;;;;;10.36;66.92;99979.96;52672;1273;1016731;-60
2022/05/28 05:17:04;;;;;;;4.10;0.50;;;;;;;10.39;66.77;99984.83;52481;1273;1016407;-61
2022/05/28 05:19:33;;;;;;;11.60;0.80;;;;;;;10.42;67.01;99986.55;52617;1273;1016428;-60
2022/05/28 05:22:03;;;;;;;6.40;0.90;;;;;;;10.46;66.94;99983.37;52681;1273;1016606;-60
2022/05/28 05:24:33;;;;;;;5.50;0.50;;;;;;;10.49;66.40;99984.98;52513;1273;1019635;-60
2022/05/28 05:27:02;;;;;;;;;;;;;;;10.51;66.25;99981.67;52566;1273;1016163;-62
2022/05/28 05:29:31;;;;;;;8.40;0.70;;;;;;;10.53;66.40;99984.80;52638;1273;1016697;-60
2022/05/28 05:32:01;;;;;;;7.10;0.60;;;;;;;10.57;66.47;99986.98;52643;1273;1018525;-60
2022/05/28 05:34:30;;;;;;;6.40;0.50;;;;;;;10.57;66.14;99984.25;52606;1273;1016232;-61
2022/05/28 05:36:59;;;;;;;5.30;0.50;;;;;;;10.54;65.97;99988.36;52592;1273;1015915;-60
2022/05/28 05:39:28;;;;;;;6.40;0.60;;;;;;;10.51;66.38;99982.33;52549;1273;1016771;-61
2022/05/28 05:41:58;;;;;;;5.50;0.30;;;;;;;10.55;66.48;99980.73;52637;1273;1016257;-62
2022/05/28 05:44:28;;;;;;;4.40;1.00;;;;;;;10.63;66.74;99969.91;52706;1273;1017110;-60
2022/05/28 05:46:57;;;;;;;4.80;0.30;;;;;;;10.71;66.33;99966.52;53576;1273;1015816;-61
2022/05/28 05:49:27;;;;;;;7.50;0.30;;;;;;;10.81;66.47;99966.25;52543;1273;1018859;-59
2022/05/28 05:51:56;;;;;;;5.60;0.30;;;;;;;10.89;66.36;99961.64;52630;1273;1016209;-61
2022/05/28 05:54:25;;;;;;;4.10;0.50;;;;;;;10.96;66.19;99967.11;52644;1273;1019179;-61
2022/05/28 05:56:55;;;;;;;6.80;0.70;;;;;;;11.02;65.85;99957.55;52539;1273;1016076;-61
2022/05/28 05:59:24;;;;;;;5.40;0.50;;;;;;;11.09;65.67;99960.48;52638;1273;1016419;-62
2022/05/28 06:01:53;;;;;;;7.00;0.60;;;;;;;11.16;65.75;99962.29;54309;1272;1015914;-62
2022/05/28 06:04:22;;;;;;;2.50;0.20;;;;;;;11.24;64.93;99957.77;52622;1273;1016014;-61
2022/05/28 06:06:51;;;;;;;8.30;1.00;;;;;;;11.30;64.06;99950.71;52690;1273;1016348;-61
2022/05/28 06:09:21;;;;;;;8.30;0.70;;;;;;;11.32;64.61;99956.73;52843;1273;1018133;-60
2022/05/28 06:11:50;;;;;;;5.80;0.30;;;;;;;11.40;64.73;99963.24;52620;1273;1016158;-62
2022/05/28 06:14:19;;;;;;;5.80;0.40;;;;;;;11.42;63.42;99964.16;52586;1273;1016845;-61
2022/05/28 06:16:48;;;;;;;5.70;0.50;;;;;;;11.35;63.39;99961.05;52694;1273;1015934;-61
2022/05/28 06:19:17;;;;;;;4.80;0.40;;;;;;;11.33;63.62;99950.30;52644;1273;1016165;-62
2022/05/28 06:21:48;;;;;;;5.10;0.60;;;;;;;11.41;63.84;99951.95;52705;1273;1016540;-60
2022/05/28 06:24:17;;;;;;;4.20;0.50;;;;;;;11.47;63.85;99953.10;52584;1273;1016710;-61
2022/05/28 06:26:48;;;;;;;4.40;0.50;;;;;;;11.47;63.22;99960.27;52620;1273;1016337;-60
2022/05/28 06:29:17;;;;;;;5.30;0.40;;;;;;;11.42;63.48;99961.13;52675;1273;1019210;-60
2022/05/28 06:31:46;;;;;;;5.30;0.40;;;;;;;11.43;63.90;99960.15;52919;1273;1019063;-61
2022/05/28 06:34:15;;;;;;;6.70;0.40;;;;;;;11.48;63.98;99956.87;52681;1273;1016538;-61
2022/05/28 06:36:44;;;;;;;6.10;0.30;;;;;;;11.52;63.66;99962.29;52692;1273;1016788;-59
2022/05/28 06:39:14;;;;;;;4.30;0.40;;;;;;;11.52;63.27;99952.70;52659;1273;1016431;-60
2022/05/28 06:41:43;;;;;;;5.40;0.40;;;;;;;11.55;63.65;99956.84;52608;1273;1016234;-60
2022/05/28 06:44:13;;;;;;;4.20;0.40;;;;;;;11.55;63.68;99955.21;52915;1272;1015907;-59
2022/05/28 06:46:42;;;;;;;7.60;0.50;;;;;;;11.65;63.88;99949.52;52643;1273;1016703;-59
2022/05/28 06:49:11;;;;;;;5.20;0.40;;;;;;;11.75;63.18;99955.61;52649;1273;1016272;-59
2022/05/28 06:51:40;;;;;;;4.30;0.40;;;;;;;11.76;63.20;99952.60;52540;1273;1017440;-60
2022/05/28 06:54:09;;;;;;;6.50;0.60;;;;;;;11.78;62.95;99943.11;52698;1273;1019202;-60
2022/05/28 06:56:38;;;;;;;4.10;0.40;;;;;;;11.87;63.17;99945.23;52652;1273;1019277;-60
2022/05/28 06:59:08;;;;;;;3.70;0.40;;;;;;;11.96;61.94;99941.04;52644;1273;1016641;-62
2022/05/28 07:01:37;;;;;;;7.50;0.50;;;;;;;12.03;61.96;99934.23;52698;1273;1018367;-60
2022/05/28 07:04:06;;;;;;;2.80;0.50;;;;;;;12.11;61.37;99930.94;52592;1273;1016461;-62
2022/05/28 07:06:36;;;;;;;2.90;0.40;;;;;;;12.20;62.01;99928.31;52550;1273;1016475;-61
2022/05/28 07:09:05;;;;;;;3.80;0.30;;;;;;;12.28;61.25;99925.77;52601;1273;1016560;-62
2022/05/28 07:11:35;;;;;;;4.60;0.30;;;;;;;12.29;60.85;99926.13;52561;1273;1016237;-62
2022/05/28 07:14:04;;;;;;;3.50;0.30;;;;;;;12.32;60.91;99921.78;52544;1273;1016273;-62
2022/05/28 07:16:33;;;;;;;3.60;0.40;;;;;;;12.35;61.05;99926.28;52598;1273;1016840;-62
2022/05/28 07:19:03;;;;;;;4.90;0.30;;;;;;;12.36;60.74;99925.16;52199;1273;1045480;-62
2022/05/28 07:21:32;;;;;;;8.30;0.80;;;;;;;12.41;60.56;99928.86;52464;1273;1016671;-63
2022/05/28 07:24:01;;;;;;;4.80;0.80;;;;;;;12.44;59.72;99920.89;52576;1273;1018637;-64
2022/05/28 07:26:31;;;;;;;4.20;0.40;;;;;;;12.45;60.22;99922.77;52495;1273;1016106;-63
2022/05/28 07:29:00;;;;;;;4.60;0.60;;;;;;;12.49;60.30;99922.70;52572;1273;1016645;-61
2022/05/28 07:31:29;;;;;;;3.30;0.50;;;;;;;12.53;59.58;99925.17;52605;1274;1016648;-60
2022/05/28 07:33:58;;;;;;;8.20;0.60;;;;;;;12.52;58.39;99917.17;52559;1273;1016656;-62
2022/05/28 07:36:27;;;;;;;5.90;0.40;;;;;;;12.51;58.49;99922.91;52577;1273;1015895;-61
2022/05/28 07:38:56;;;;;;;6.80;0.70;;;;;;;12.52;59.10;99919.48;52605;1274;1016416;-62
2022/05/28 07:41:26;;;;;;;5.20;0.50;;;;;;;12.57;59.13;99912.00;52556;1275;1016664;-62
2022/05/28 07:43:57;;;;;;;6.90;0.70;;;;;;;12.66;59.03;99904.31;52554;1273;1016608;-62
2022/05/28 07:46:28;;;;;;;6.90;0.40;;;;;;;12.76;58.48;99906.05;52689;1273;1016705;-63
2022/05/28 07:48:58;;;;;;;8.00;0.90;;;;;;;12.81;58.25;99905.55;52560;1273;1016295;-62
2022/05/28 07:51:27;;;;;;;;;;;;;;;12.81;57.89;99910.90;52598;1273;1016490;-61
2022/05/28 07:53:57;;;;;;;5.60;0.80;;;;;;;12.78;57.35;99906.87;52663;1273;1016590;-62
2022/05/28 07:56:26;;;;;;;6.00;0.60;;;;;;;12.73;56.79;99905.11;52848;1274;1016701;-62
2022/05/28 07:58:57;;;;;;;4.70;0.30;;;;;;;12.66;57.23;99895.77;52797;1274;1015892;-62
2022/05/28 08:01:28;;;;;;;5.40;0.60;;;;;;;12.63;57.50;99898.00;53126;1273;1016550;-60
2022/05/28 08:03:59;;;;;;;5.00;0.50;;;;;;;12.66;57.22;99902.48;53535;1274;1020170;-61
2022/05/28 08:06:30;;;;;;;4.80;0.40;;;;;;;12.72;57.03;99907.70;53925;1274;1015720;-61
2022/05/28 08:09:00;;;;;;;3.30;0.40;;;;;;;12.85;57.32;99908.79;52541;1274;1018353;-61
2022/05/28 08:11:30;;;;;;;3.40;0.50;;;;;;;12.97;57.27;99902.58;52515;1273;1016393;-61
2022/05/28 08:13:59;;;;;;;4.50;0.30;;;;;;;13.01;57.27;99895.91;54464;1274;1016050;-61
2022/05/28 08:16:30;;;;;;;5.50;0.30;;;;;;;13.07;57.24;99897.39;52864;1275;1016390;-62
2022/05/28 08:18:59;;;;;;;5.90;0.30;;;;;;;13.19;57.03;99887.79;52619;1273;1017154;-63
2022/05/28 08:24:16;;;;;;;4.20;0.40;;;;;;;13.40;53.97;99901.55;52555;1274;1018845;-62
2022/05/28 08:26:47;;;;;;;2.40;0.20;;;;;;;13.42;53.91;99899.41;52628;1274;1016427;-61
2022/05/28 08:29:17;;;;;;;5.50;0.40;;;;;;;13.48;54.39;99904.70;52532;1275;1016624;-63
2022/05/28 08:31:46;;;;;;;6.70;0.40;;;;;;;13.56;55.34;99898.77;52623;1273;1017102;-62
2022/05/28 08:34:16;;;;;;;1.70;0.30;;;;;;;13.58;54.20;99903.94;52571;1273;1016396;-62
2022/05/28 08:36:45;;;;;;;2.90;0.30;;;;;;;13.50;52.35;99912.04;52592;1274;1016198;-62
2022/05/28 08:39:15;;;;;;;6.70;0.30;;;;;;;13.44;53.18;99905.04;52647;1273;1017086;-63
2022/05/28 08:41:48;;;;;;;1.80;0.30;;;;;;;13.43;53.69;99909.35;52608;1273;1016722;-62
2022/05/28 08:44:21;;;;;;;4.00;0.70;;;;;;;13.44;54.16;99909.92;52629;1274;1016568;-62
2022/05/28 08:46:54;;;;;;;4.60;0.40;;;;;;;13.53;52.79;99915.45;52563;1273;1016081;-62
2022/05/28 08:49:27;;;;;;;4.20;0.40;;;;;;;13.57;52.10;99912.86;52633;1276;1016330;-62
2022/05/28 08:52:05;;;;;;;4.30;0.40;;;;;;;13.56;52.78;99910.27;52727;1274;1015917;-62
2022/05/28 08:54:40;;;;;;;2.70;0.30;;;;;;;13.52;51.34;99911.48;52555;1274;1015770;-62
2022/05/28 08:57:12;;;;;;;4.70;0.30;;;;;;;13.41;51.82;99913.39;52618;1274;1017067;-62
2022/05/28 08:59:47;;;;;;;3.00;0.40;;;;;;;13.29;51.73;99910.35;52671;1274;1016238;-62
2022/05/28 09:02:33;;;;;;;5.50;0.30;;;;;;;13.27;52.32;99911.42;52647;1275;1016165;-62
2022/05/28 09:05:05;;;;;;;5.90;0.30;;;;;;;13.38;51.62;99917.41;52654;1275;1016703;-61
2022/05/28 09:07:35;;;;;;;3.50;0.30;;;;;;;13.39;51.75;99910.88;52713;1273;1016260;-62
2022/05/28 09:10:07;;;;;;;3.20;0.10;;;;;;;13.39;52.00;99910.88;52593;1274;1016165;-64
2022/05/28 09:12:42;;;;;;;4.80;0.30;;;;;;;13.35;51.66;99909.76;52723;1274;1016361;-63
2022/05/28 09:15:12;;;;;;;3.70;0.40;;;;;;;13.31;51.75;99912.04;52683;1274;1017031;-63
2022/05/28 09:17:45;;;;;;;4.00;0.50;;;;;;;13.34;51.61;99919.39;52687;1275;1016177;-63
2022/05/28 09:20:18;;;;;;;4.40;0.30;;;;;;;13.32;50.86;99915.71;52607;1277;1017834;-63
2022/05/28 09:22:47;;;;;;;4.10;0.40;;;;;;;13.39;50.69;99915.68;52682;1275;1016112;-63
2022/05/28 09:25:20;;;;;;;5.50;0.30;;;;;;;13.40;50.96;99921.23;52546;1277;1016650;-63
2022/05/28 09:28:02;;;;;;;2.40;0.30;;;;;;;13.43;51.52;99918.75;52581;1276;1016908;-63
2022/05/28 09:30:41;;;;;;;4.80;0.40;;;;;;;13.47;51.64;99910.86;52571;1275;1016447;-64
2022/05/28 09:33:33;;;;;;;3.30;0.20;;;;;;;13.46;51.16;99905.70;53131;1274;1016442;-64
2022/05/28 09:36:07;;;;;;;2.60;0.30;;;;;;;13.53;51.93;99903.02;52546;1274;1015888;-64
2022/05/28 09:38:53;;;;;;;3.90;0.50;;;;;;;13.64;51.52;99908.95;52542;1275;1016648;-64
2022/05/28 09:41:39;;;;;;;2.00;0.20;;;;;;;13.67;51.87;99903.44;52649;1275;1016277;-64
2022/05/28 09:44:22;;;;;;;2.50;0.10;;;;;;;13.71;51.27;99906.30;52761;1275;1016487;-64
2022/05/28 09:46:51;;;;;;;3.00;0.20;;;;;;;13.75;50.80;99908.80;52504;1275;1016496;-64
2022/05/28 09:49:22;;;;;;;2.00;0.20;;;;;;;13.78;51.32;99902.54;52680;1274;1016225;-65
2022/05/28 09:51:55;;;;;;;2.50;0.30;;;;;;;13.85;51.52;99905.34;52598;1275;1016834;-64
2022/05/28 09:54:30;;;;;;;4.20;0.20;;;;;;;13.92;51.61;99899.27;52509;1275;1016582;-64
2022/05/28 09:57:01;;;;;;;2.30;0.40;;;;;;;14.04;51.56;99902.59;52648;1274;1016109;-64
2022/05/28 09:59:37;;;;;;;2.30;0.20;;;;;;;14.21;51.30;99903.34;52636;1275;1016035;-65
2022/05/28 10:02:13;;;;;;;7.10;0.30;;;;;;;14.22;50.92;99908.08;52624;1277;1016187;-64
2022/05/28 10:04:50;;;;;;;5.50;0.40;;;;;;;14.06;51.11;99927.69;52560;1274;1019094;-64
2022/05/28 10:07:31;;;;;;;4.90;0.20;;;;;;;13.60;55.05;99965.89;52509;1275;1016976;-59
2022/05/28 10:10:01;;;;;;;4.40;0.10;;;;;;;12.82;56.54;99975.04;53085;1274;1016733;-60
2022/05/28 10:12:32;;;;;;;3.00;0.30;;;;;;;12.25;58.05;99967.52;52531;1274;1016145;-58
2022/05/28 10:15:07;;;;;;;1.80;0.20;;;;;;;11.88;58.86;99968.48;52518;1274;1016613;-58
2022/05/28 10:17:42;;;;;;;1.30;0.10;;;;;;;11.61;59.96;99970.47;52497;1274;1015935;-58
2022/05/28 10:20:18;;;;;;;4.30;0.20;;;;;;;11.49;61.00;99966.94;52599;1274;1016186;-59
2022/05/28 10:22:49;;;;;;;5.00;0.10;;;;;;;11.45;62.15;99965.83;52531;1274;1016178;-58
2022/05/28 10:25:32;;;;;;;0.40;0.10;;;;;;;11.48;62.63;99964.64;52701;1274;1015797;-61
2022/05/28 10:28:02;;;;;;;4.30;0.30;;;;;;;11.53;63.43;99955.23;52572;1274;1016642;-62
2022/05/28 10:30:34;;;;;;;3.30;0.20;;;;;;;11.61;63.18;99953.70;52631;1274;1016204;-62
2022/05/28 10:33:08;;;;;;;6.30;0.20;;;;;;;11.70;63.58;99951.31;52536;1274;1016300;-62
2022/05/28 10:35:38;;;;;;;3.10;0.30;;;;;;;11.86;64.41;99952.45;52590;1273;1016637;-63
2022/05/28 10:38:10;;;;;;;7.60;0.40;;;;;;;12.05;63.60;99945.70;52535;1274;1016237;-62
2022/05/28 10:40:48;;;;;;;1.80;0.20;;;;;;;12.19;63.29;99944.84;54553;1274;1016381;-62
2022/05/28 10:43:30;;;;;;;4.30;0.50;;;;;;;12.27;62.73;99952.07;54547;1273;1015708;-62
2022/05/28 10:46:09;;;;;;;;;;;;;;;12.40;62.17;99944.54;54512;1274;1015725;-61
2022/05/28 10:48:53;;;;;;;2.10;0.20;;;;;;;12.52;60.51;99945.79;54296;1274;1015748;-61
2022/05/28 10:51:31;;;;;;;1.30;0.10;;;;;;;12.61;59.96;99947.52;52540;1274;1016743;-61
2022/05/28 10:54:19;;;;;;;1.70;0.20;;;;;;;12.65;60.13;99946.07;52670;1274;1017020;-61
2022/05/28 10:57:03;;;;;;;1.70;0.30;;;;;;;12.77;58.80;99945.38;52633;1274;1016307;-61
2022/05/28 10:59:50;;;;;;;3.90;0.10;;;;;;;12.87;57.62;99947.77;52575;1274;1017864;-61
2022/05/28 11:02:38;;;;;;;2.10;0.30;;;;;;;12.95;57.41;99949.73;52575;1274;1016366;-61
2022/05/28 11:05:20;;;;;;;3.40;0.20;;;;;;;13.07;57.87;99953.48;52719;1273;1015818;-61
2022/05/28 11:07:56;;;;;;;2.40;0.20;;;;;;;13.21;57.14;99945.84;52587;1276;1016391;-61
2022/05/28 11:10:52;;;;;;;1.70;0.20;;;;;;;13.32;56.85;99936.20;52713;1274;1016648;-60
2022/05/28 11:13:38;;;;;;;2.60;0.20;;;;;;;13.45;56.72;99951.98;52698;1274;1016200;-61
2022/05/28 11:16:39;;;;;;;1.40;0.20;;;;;;;13.57;55.39;99946.76;52552;1275;1016034;-59
2022/05/28 11:19:21;;;;;;;1.80;0.20;;;;;;;13.55;54.81;99937.54;52418;1281;1016833;-61
2022/05/28 11:22:22;;;;;;;3.20;0.20;;;;;;;13.55;55.55;99941.77;52304;1281;1016019;-61
2022/05/28 11:24:54;;;;;;;;;;;;;;;13.61;55.98;99935.15;52386;1281;1016670;-61
2022/05/28 11:27:35;;;;;;;2.60;0.20;;;;;;;13.77;55.39;99945.38;52327;1281;1016748;-61
2022/05/28 11:30:08;;;;;;;1.90;0.20;;;;;;;13.92;55.14;99939.11;52461;1281;1016315;-62
2022/05/28 11:32:44;;;;;;;2.70;0.30;;;;;;;14.00;55.12;99929.89;52375;1281;1016122;-59
2022/05/28 11:35:27;;;;;;;2.20;0.20;;;;;;;14.06;55.15;99928.47;52341;1281;1016730;-59
2022/05/28 11:38:02;;;;;;;3.90;0.80;;;;;;;14.06;55.29;99925.30;52398;1281;1016654;-61
2022/05/28 11:40:35;;;;;;;4.00;0.30;;;;;;;14.18;55.81;99921.56;52460;1280;1016224;-62
2022/05/28 11:43:11;;;;;;;1.80;0.30;;;;;;;14.36;54.88;99916.36;52450;1281;1016357;-62
2022/05/28 11:45:47;;;;;;;2.90;0.20;;;;;;;14.53;55.24;99909.02;52403;1281;1016477;-63
2022/05/28 11:48:25;;;;;;;3.10;0.20;;;;;;;14.70;55.13;99908.58;52381;1280;1018011;-62